sensor_id;sensor_type;location;lat;lon;timestamp;P1;durP1;ratioP1;P2;durP2;ratioP2
18503;SDS011;9381;54.244;10.074;2024-01-25T00:04:39;42.93;;;8.90;;
18503;SDS011;9381;54.244;10.074;2024-01-25T00:09:40;49.50;;;8.70;;
18503;SDS011;9381;54.244;10.074;2024-01-25T00:14:40;45.75;;;8.40;;
18503;SDS011;9381;54.244;10.074;2024-01-25T00:19:40;49.57;;;9.73;;
18503;SDS011;9381;54.244;10.074;2024-01-25T00:24:41;44.70;;;9.20;;
18503;SDS011;9381;54.244;10.074;2024-01-25T00:29:41;41.63;;;8.70;;
18503;SDS011;9381;54.244;10.074;2024-01-25T00:34:42;52.93;;;10.23;;
18503;SDS011;9381;54.244;10.074;2024-01-25T00:39:42;40.60;;;8.97;;
18503;SDS011;9381;54.244;10.074;2024-01-25T00:44:43;47.17;;;8.63;;
18503;SDS011;9381;54.244;10.074;2024-01-25T00:49:43;54.87;;;8.67;;
18503;SDS011;9381;54.244;10.074;2024-01-25T00:54:44;38.50;;;7.97;;
18503;SDS011;9381;54.244;10.074;2024-01-25T00:59:44;53.43;;;9.70;;
18503;SDS011;9381;54.244;10.074;2024-01-25T01:04:45;48.53;;;8.07;;
18503;SDS011;9381;54.244;10.074;2024-01-25T01:09:45;39.87;;;8.30;;
18503;SDS011;9381;54.244;10.074;2024-01-25T01:14:46;45.88;;;8.25;;
18503;SDS011;9381;54.244;10.074;2024-01-25T01:19:46;50.93;;;9.17;;
18503;SDS011;9381;54.244;10.074;2024-01-25T01:24:47;48.70;;;9.03;;
18503;SDS011;9381;54.244;10.074;2024-01-25T01:29:47;47.47;;;7.90;;
18503;SDS011;9381;54.244;10.074;2024-01-25T01:34:47;52.67;;;10.23;;
18503;SDS011;9381;54.244;10.074;2024-01-25T01:39:48;42.00;;;8.20;;
18503;SDS011;9381;54.244;10.074;2024-01-25T01:44:49;46.13;;;8.47;;
18503;SDS011;9381;54.244;10.074;2024-01-25T01:49:51;48.93;;;7.93;;
18503;SDS011;9381;54.244;10.074;2024-01-25T01:54:52;49.73;;;9.27;;
18503;SDS011;9381;54.244;10.074;2024-01-25T01:59:52;44.27;;;8.57;;
18503;SDS011;9381;54.244;10.074;2024-01-25T02:04:53;44.37;;;8.30;;
18503;SDS011;9381;54.244;10.074;2024-01-25T02:09:53;49.72;;;8.20;;
18503;SDS011;9381;54.244;10.074;2024-01-25T02:14:53;41.20;;;8.73;;
18503;SDS011;9381;54.244;10.074;2024-01-25T02:19:54;44.17;;;8.93;;
18503;SDS011;9381;54.244;10.074;2024-01-25T02:24:54;48.23;;;8.40;;
18503;SDS011;9381;54.244;10.074;2024-01-25T02:29:54;57.13;;;8.50;;
18503;SDS011;9381;54.244;10.074;2024-01-25T02:34:55;36.47;;;9.15;;
18503;SDS011;9381;54.244;10.074;2024-01-25T02:39:55;45.60;;;8.20;;
18503;SDS011;9381;54.244;10.074;2024-01-25T02:44:55;45.37;;;8.43;;
18503;SDS011;9381;54.244;10.074;2024-01-25T02:49:56;40.97;;;7.13;;
18503;SDS011;9381;54.244;10.074;2024-01-25T02:54:56;36.30;;;7.70;;
18503;SDS011;9381;54.244;10.074;2024-01-25T02:59:57;44.37;;;8.30;;
18503;SDS011;9381;54.244;10.074;2024-01-25T03:04:57;39.63;;;7.43;;
18503;SDS011;9381;54.244;10.074;2024-01-25T03:09:58;38.50;;;8.47;;
18503;SDS011;9381;54.244;10.074;2024-01-25T03:14:58;38.22;;;7.18;;
18503;SDS011;9381;54.244;10.074;2024-01-25T03:19:58;36.60;;;6.70;;
18503;SDS011;9381;54.244;10.074;2024-01-25T03:24:59;35.10;;;6.63;;
18503;SDS011;9381;54.244;10.074;2024-01-25T03:29:59;43.97;;;7.40;;
18503;SDS011;9381;54.244;10.074;2024-01-25T03:34:59;44.93;;;7.83;;
18503;SDS011;9381;54.244;10.074;2024-01-25T03:40:00;39.97;;;7.10;;
18503;SDS011;9381;54.244;10.074;2024-01-25T03:45:00;40.33;;;7.97;;
18503;SDS011;9381;54.244;10.074;2024-01-25T03:50:00;49.42;;;8.45;;
18503;SDS011;9381;54.244;10.074;2024-01-25T03:55:01;45.27;;;7.37;;
18503;SDS011;9381;54.244;10.074;2024-01-25T04:00:02;38.67;;;7.23;;
18503;SDS011;9381;54.244;10.074;2024-01-25T04:05:03;41.30;;;7.37;;
18503;SDS011;9381;54.244;10.074;2024-01-25T04:10:04;38.33;;;7.20;;
18503;SDS011;9381;54.244;10.074;2024-01-25T04:15:05;47.63;;;8.07;;
18503;SDS011;9381;54.244;10.074;2024-01-25T04:20:06;35.33;;;7.37;;
18503;SDS011;9381;54.244;10.074;2024-01-25T04:25:07;30.97;;;7.20;;
18503;SDS011;9381;54.244;10.074;2024-01-25T04:30:08;38.23;;;6.77;;
18503;SDS011;9381;54.244;10.074;2024-01-25T04:35:08;38.93;;;7.80;;
18503;SDS011;9381;54.244;10.074;2024-01-25T04:40:09;35.33;;;7.63;;
18503;SDS011;9381;54.244;10.074;2024-01-25T04:45:10;30.37;;;6.03;;
18503;SDS011;9381;54.244;10.074;2024-01-25T04:50:10;38.37;;;6.63;;
18503;SDS011;9381;54.244;10.074;2024-01-25T04:55:11;35.60;;;6.30;;
18503;SDS011;9381;54.244;10.074;2024-01-25T05:00:11;35.10;;;6.90;;
18503;SDS011;9381;54.244;10.074;2024-01-25T05:05:12;27.53;;;7.03;;
18503;SDS011;9381;54.244;10.074;2024-01-25T05:10:12;30.20;;;6.13;;
18503;SDS011;9381;54.244;10.074;2024-01-25T05:15:12;35.13;;;7.00;;
18503;SDS011;9381;54.244;10.074;2024-01-25T05:20:13;30.73;;;6.47;;
18503;SDS011;9381;54.244;10.074;2024-01-25T05:25:15;33.17;;;6.53;;
18503;SDS011;9381;54.244;10.074;2024-01-25T05:30:15;37.00;;;6.63;;
18503;SDS011;9381;54.244;10.074;2024-01-25T05:35:16;35.10;;;6.97;;
18503;SDS011;9381;54.244;10.074;2024-01-25T05:40:17;37.40;;;6.33;;
18503;SDS011;9381;54.244;10.074;2024-01-25T05:45:18;22.80;;;5.60;;
18503;SDS011;9381;54.244;10.074;2024-01-25T05:50:20;33.30;;;6.30;;
18503;SDS011;9381;54.244;10.074;2024-01-25T05:55:20;31.50;;;6.30;;
18503;SDS011;9381;54.244;10.074;2024-01-25T06:00:21;40.97;;;6.68;;
18503;SDS011;9381;54.244;10.074;2024-01-25T06:05:21;30.43;;;5.40;;
18503;SDS011;9381;54.244;10.074;2024-01-25T06:10:21;33.70;;;7.50;;
18503;SDS011;9381;54.244;10.074;2024-01-25T06:15:22;34.20;;;6.35;;
18503;SDS011;9381;54.244;10.074;2024-01-25T06:20:22;31.27;;;5.13;;
18503;SDS011;9381;54.244;10.074;2024-01-25T06:25:23;34.80;;;6.03;;
18503;SDS011;9381;54.244;10.074;2024-01-25T06:30:23;34.50;;;5.78;;
18503;SDS011;9381;54.244;10.074;2024-01-25T06:35:23;37.97;;;6.23;;
18503;SDS011;9381;54.244;10.074;2024-01-25T06:40:24;30.30;;;5.07;;
18503;SDS011;9381;54.244;10.074;2024-01-25T06:45:24;32.53;;;5.73;;
18503;SDS011;9381;54.244;10.074;2024-01-25T06:50:24;31.57;;;6.60;;
18503;SDS011;9381;54.244;10.074;2024-01-25T06:55:24;29.23;;;5.85;;
18503;SDS011;9381;54.244;10.074;2024-01-25T07:00:25;33.23;;;6.47;;
18503;SDS011;9381;54.244;10.074;2024-01-25T07:05:25;25.73;;;5.73;;
18503;SDS011;9381;54.244;10.074;2024-01-25T07:10:26;29.27;;;5.30;;
18503;SDS011;9381;54.244;10.074;2024-01-25T07:15:27;34.00;;;6.03;;
18503;SDS011;9381;54.244;10.074;2024-01-25T07:20:27;28.57;;;5.57;;
18503;SDS011;9381;54.244;10.074;2024-01-25T07:25:27;36.37;;;5.73;;
18503;SDS011;9381;54.244;10.074;2024-01-25T07:30:28;32.93;;;6.70;;
18503;SDS011;9381;54.244;10.074;2024-01-25T07:35:28;30.83;;;5.40;;
18503;SDS011;9381;54.244;10.074;2024-01-25T07:40:28;26.13;;;5.30;;
18503;SDS011;9381;54.244;10.074;2024-01-25T07:45:29;27.88;;;5.35;;
18503;SDS011;9381;54.244;10.074;2024-01-25T07:50:29;24.43;;;4.67;;
18503;SDS011;9381;54.244;10.074;2024-01-25T07:55:30;30.47;;;5.30;;
18503;SDS011;9381;54.244;10.074;2024-01-25T08:00:30;29.98;;;6.35;;
18503;SDS011;9381;54.244;10.074;2024-01-25T08:05:30;33.00;;;4.90;;
18503;SDS011;9381;54.244;10.074;2024-01-25T08:10:31;34.67;;;6.20;;
18503;SDS011;9381;54.244;10.074;2024-01-25T08:15:31;30.57;;;6.00;;
18503;SDS011;9381;54.244;10.074;2024-01-25T08:20:31;32.88;;;5.65;;
18503;SDS011;9381;54.244;10.074;2024-01-25T08:25:31;32.93;;;6.07;;
18503;SDS011;9381;54.244;10.074;2024-01-25T08:30:32;32.53;;;5.67;;
18503;SDS011;9381;54.244;10.074;2024-01-25T08:35:32;34.60;;;6.03;;
18503;SDS011;9381;54.244;10.074;2024-01-25T08:40:33;31.23;;;6.47;;
18503;SDS011;9381;54.244;10.074;2024-01-25T08:45:33;31.87;;;6.60;;
18503;SDS011;9381;54.244;10.074;2024-01-25T08:50:34;29.30;;;6.03;;
18503;SDS011;9381;54.244;10.074;2024-01-25T08:55:35;27.43;;;6.13;;
18503;SDS011;9381;54.244;10.074;2024-01-25T09:00:36;27.23;;;5.37;;
18503;SDS011;9381;54.244;10.074;2024-01-25T09:05:36;35.30;;;5.60;;
18503;SDS011;9381;54.244;10.074;2024-01-25T09:10:40;32.27;;;6.27;;
18503;SDS011;9381;54.244;10.074;2024-01-25T09:15:42;26.03;;;4.53;;
18503;SDS011;9381;54.244;10.074;2024-01-25T09:20:44;30.43;;;6.37;;
18503;SDS011;9381;54.244;10.074;2024-01-25T09:25:47;30.10;;;5.63;;
18503;SDS011;9381;54.244;10.074;2024-01-25T09:30:48;27.73;;;5.57;;
18503;SDS011;9381;54.244;10.074;2024-01-25T09:35:48;27.00;;;6.07;;
18503;SDS011;9381;54.244;10.074;2024-01-25T09:40:49;30.40;;;5.67;;
18503;SDS011;9381;54.244;10.074;2024-01-25T09:45:51;36.40;;;6.50;;
18503;SDS011;9381;54.244;10.074;2024-01-25T09:50:56;29.03;;;6.20;;
18503;SDS011;9381;54.244;10.074;2024-01-25T09:56:11;24.90;;;4.90;;
18503;SDS011;9381;54.244;10.074;2024-01-25T10:01:13;30.57;;;6.43;;
18503;SDS011;9381;54.244;10.074;2024-01-25T10:06:18;31.63;;;5.60;;
18503;SDS011;9381;54.244;10.074;2024-01-25T10:11:18;25.07;;;4.83;;
18503;SDS011;9381;54.244;10.074;2024-01-25T10:16:19;24.60;;;4.80;;
18503;SDS011;9381;54.244;10.074;2024-01-25T10:21:20;22.83;;;6.17;;
18503;SDS011;9381;54.244;10.074;2024-01-25T10:26:21;29.53;;;5.80;;
18503;SDS011;9381;54.244;10.074;2024-01-25T10:31:24;28.53;;;5.87;;
18503;SDS011;9381;54.244;10.074;2024-01-25T10:36:27;23.83;;;4.47;;
18503;SDS011;9381;54.244;10.074;2024-01-25T10:41:28;26.10;;;5.40;;
18503;SDS011;9381;54.244;10.074;2024-01-25T10:46:30;34.30;;;5.63;;
18503;SDS011;9381;54.244;10.074;2024-01-25T10:51:32;24.93;;;5.37;;
18503;SDS011;9381;54.244;10.074;2024-01-25T10:56:34;26.97;;;4.97;;
18503;SDS011;9381;54.244;10.074;2024-01-25T11:01:37;30.03;;;5.07;;
18503;SDS011;9381;54.244;10.074;2024-01-25T11:06:37;26.30;;;5.07;;
18503;SDS011;9381;54.244;10.074;2024-01-25T11:11:37;28.83;;;5.37;;
18503;SDS011;9381;54.244;10.074;2024-01-25T11:16:38;28.47;;;4.87;;
18503;SDS011;9381;54.244;10.074;2024-01-25T11:26:43;25.00;;;5.27;;
18503;SDS011;9381;54.244;10.074;2024-01-25T11:31:45;25.83;;;4.57;;
18503;SDS011;9381;54.244;10.074;2024-01-25T11:36:46;30.37;;;5.00;;
18503;SDS011;9381;54.244;10.074;2024-01-25T11:41:46;24.60;;;5.32;;
18503;SDS011;9381;54.244;10.074;2024-01-25T11:46:47;27.70;;;4.67;;
18503;SDS011;9381;54.244;10.074;2024-01-25T11:51:47;36.87;;;6.03;;
18503;SDS011;9381;54.244;10.074;2024-01-25T11:56:48;26.60;;;5.13;;
18503;SDS011;9381;54.244;10.074;2024-01-25T12:01:48;28.33;;;5.80;;
18503;SDS011;9381;54.244;10.074;2024-01-25T12:06:49;26.87;;;4.87;;
18503;SDS011;9381;54.244;10.074;2024-01-25T12:11:49;23.10;;;5.20;;
18503;SDS011;9381;54.244;10.074;2024-01-25T12:16:50;27.43;;;6.33;;
18503;SDS011;9381;54.244;10.074;2024-01-25T12:21:51;29.17;;;4.97;;
18503;SDS011;9381;54.244;10.074;2024-01-25T12:26:52;29.63;;;6.03;;
18503;SDS011;9381;54.244;10.074;2024-01-25T12:31:54;33.17;;;4.97;;
18503;SDS011;9381;54.244;10.074;2024-01-25T12:36:54;31.37;;;5.63;;
18503;SDS011;9381;54.244;10.074;2024-01-25T12:41:55;22.53;;;5.33;;
18503;SDS011;9381;54.244;10.074;2024-01-25T12:46:56;26.33;;;5.50;;
18503;SDS011;9381;54.244;10.074;2024-01-25T12:51:56;23.45;;;4.75;;
18503;SDS011;9381;54.244;10.074;2024-01-25T12:56:56;28.43;;;4.77;;
18503;SDS011;9381;54.244;10.074;2024-01-25T13:01:57;19.50;;;4.77;;
18503;SDS011;9381;54.244;10.074;2024-01-25T13:06:57;26.07;;;4.73;;
18503;SDS011;9381;54.244;10.074;2024-01-25T13:11:58;32.23;;;5.93;;
18503;SDS011;9381;54.244;10.074;2024-01-25T13:16:59;34.57;;;5.93;;
18503;SDS011;9381;54.244;10.074;2024-01-25T13:21:59;33.87;;;5.07;;
18503;SDS011;9381;54.244;10.074;2024-01-25T13:26:59;27.37;;;5.83;;
18503;SDS011;9381;54.244;10.074;2024-01-25T13:32:00;24.90;;;5.07;;
18503;SDS011;9381;54.244;10.074;2024-01-25T13:37:00;22.23;;;4.97;;
18503;SDS011;9381;54.244;10.074;2024-01-25T13:42:00;26.90;;;5.20;;
18503;SDS011;9381;54.244;10.074;2024-01-25T13:47:01;31.17;;;5.63;;
18503;SDS011;9381;54.244;10.074;2024-01-25T13:52:02;26.40;;;4.97;;
18503;SDS011;9381;54.244;10.074;2024-01-25T13:57:03;31.00;;;5.40;;
18503;SDS011;9381;54.244;10.074;2024-01-25T14:02:03;20.90;;;4.87;;
18503;SDS011;9381;54.244;10.074;2024-01-25T14:07:04;21.27;;;5.20;;
18503;SDS011;9381;54.244;10.074;2024-01-25T14:12:04;21.80;;;5.20;;
18503;SDS011;9381;54.244;10.074;2024-01-25T14:17:05;27.23;;;5.53;;
18503;SDS011;9381;54.244;10.074;2024-01-25T14:22:05;30.30;;;5.03;;
18503;SDS011;9381;54.244;10.074;2024-01-25T14:27:06;31.50;;;6.03;;
18503;SDS011;9381;54.244;10.074;2024-01-25T14:32:06;26.43;;;5.20;;
18503;SDS011;9381;54.244;10.074;2024-01-25T14:37:06;30.60;;;5.13;;
18503;SDS011;9381;54.244;10.074;2024-01-25T14:42:10;25.60;;;4.97;;
18503;SDS011;9381;54.244;10.074;2024-01-25T14:47:13;38.13;;;6.43;;
18503;SDS011;9381;54.244;10.074;2024-01-25T14:52:20;33.57;;;5.90;;
18503;SDS011;9381;54.244;10.074;2024-01-25T14:57:20;25.70;;;5.00;;
18503;SDS011;9381;54.244;10.074;2024-01-25T15:02:20;28.43;;;5.90;;
18503;SDS011;9381;54.244;10.074;2024-01-25T15:07:21;37.07;;;5.97;;
18503;SDS011;9381;54.244;10.074;2024-01-25T15:12:21;30.77;;;5.20;;
18503;SDS011;9381;54.244;10.074;2024-01-25T15:17:21;32.80;;;5.97;;
18503;SDS011;9381;54.244;10.074;2024-01-25T15:22:22;35.07;;;5.23;;
18503;SDS011;9381;54.244;10.074;2024-01-25T15:27:25;25.47;;;5.47;;
18503;SDS011;9381;54.244;10.074;2024-01-25T15:32:26;32.37;;;5.20;;
18503;SDS011;9381;54.244;10.074;2024-01-25T15:37:26;21.10;;;4.53;;
18503;SDS011;9381;54.244;10.074;2024-01-25T15:42:26;30.48;;;5.50;;
18503;SDS011;9381;54.244;10.074;2024-01-25T15:47:30;34.87;;;6.63;;
18503;SDS011;9381;54.244;10.074;2024-01-25T15:52:31;33.08;;;6.38;;
18503;SDS011;9381;54.244;10.074;2024-01-25T15:57:32;28.00;;;6.27;;
18503;SDS011;9381;54.244;10.074;2024-01-25T16:02:32;37.93;;;6.67;;
18503;SDS011;9381;54.244;10.074;2024-01-25T16:07:33;33.95;;;7.78;;
18503;SDS011;9381;54.244;10.074;2024-01-25T16:12:33;43.40;;;8.60;;
18503;SDS011;9381;54.244;10.074;2024-01-25T16:17:33;32.77;;;6.17;;
18503;SDS011;9381;54.244;10.074;2024-01-25T16:22:34;37.83;;;6.60;;
18503;SDS011;9381;54.244;10.074;2024-01-25T16:27:34;41.17;;;6.90;;
18503;SDS011;9381;54.244;10.074;2024-01-25T16:32:34;32.50;;;6.50;;
18503;SDS011;9381;54.244;10.074;2024-01-25T16:37:35;40.80;;;6.27;;
18503;SDS011;9381;54.244;10.074;2024-01-25T16:42:35;35.43;;;6.60;;
18503;SDS011;9381;54.244;10.074;2024-01-25T16:47:35;35.10;;;6.37;;
18503;SDS011;9381;54.244;10.074;2024-01-25T16:52:36;39.00;;;7.90;;
18503;SDS011;9381;54.244;10.074;2024-01-25T16:57:36;35.90;;;7.20;;
18503;SDS011;9381;54.244;10.074;2024-01-25T17:02:36;28.77;;;5.80;;
18503;SDS011;9381;54.244;10.074;2024-01-25T17:07:37;29.50;;;6.57;;
18503;SDS011;9381;54.244;10.074;2024-01-25T17:12:37;37.37;;;6.57;;
18503;SDS011;9381;54.244;10.074;2024-01-25T17:17:38;34.05;;;6.45;;
18503;SDS011;9381;54.244;10.074;2024-01-25T17:22:38;32.53;;;6.57;;
18503;SDS011;9381;54.244;10.074;2024-01-25T17:27:39;31.93;;;6.50;;
18503;SDS011;9381;54.244;10.074;2024-01-25T17:32:39;35.83;;;6.20;;
18503;SDS011;9381;54.244;10.074;2024-01-25T17:37:39;35.07;;;6.23;;
18503;SDS011;9381;54.244;10.074;2024-01-25T17:42:40;34.23;;;6.93;;
18503;SDS011;9381;54.244;10.074;2024-01-25T17:47:41;36.03;;;7.90;;
18503;SDS011;9381;54.244;10.074;2024-01-25T17:52:41;30.43;;;7.27;;
18503;SDS011;9381;54.244;10.074;2024-01-25T17:57:41;31.13;;;7.37;;
18503;SDS011;9381;54.244;10.074;2024-01-25T18:02:43;34.37;;;8.40;;
18503;SDS011;9381;54.244;10.074;2024-01-25T18:07:43;35.30;;;8.20;;
18503;SDS011;9381;54.244;10.074;2024-01-25T18:12:43;32.57;;;7.73;;
18503;SDS011;9381;54.244;10.074;2024-01-25T18:17:44;34.30;;;9.60;;
18503;SDS011;9381;54.244;10.074;2024-01-25T18:22:44;32.83;;;9.47;;
18503;SDS011;9381;54.244;10.074;2024-01-25T18:27:46;41.00;;;12.07;;
18503;SDS011;9381;54.244;10.074;2024-01-25T18:32:47;27.97;;;10.03;;
18503;SDS011;9381;54.244;10.074;2024-01-25T18:37:47;27.80;;;10.57;;
18503;SDS011;9381;54.244;10.074;2024-01-25T18:42:48;34.67;;;11.47;;
18503;SDS011;9381;54.244;10.074;2024-01-25T18:47:48;33.77;;;10.60;;
18503;SDS011;9381;54.244;10.074;2024-01-25T18:52:48;30.47;;;11.20;;
18503;SDS011;9381;54.244;10.074;2024-01-25T18:57:49;32.37;;;10.37;;
18503;SDS011;9381;54.244;10.074;2024-01-25T19:02:50;39.27;;;11.60;;
18503;SDS011;9381;54.244;10.074;2024-01-25T19:07:50;28.27;;;10.97;;
18503;SDS011;9381;54.244;10.074;2024-01-25T19:12:52;25.40;;;10.43;;
18503;SDS011;9381;54.244;10.074;2024-01-25T19:17:52;33.00;;;10.73;;
18503;SDS011;9381;54.244;10.074;2024-01-25T19:22:52;32.90;;;10.83;;
18503;SDS011;9381;54.244;10.074;2024-01-25T19:27:53;28.93;;;11.13;;
18503;SDS011;9381;54.244;10.074;2024-01-25T19:32:53;29.45;;;11.25;;
18503;SDS011;9381;54.244;10.074;2024-01-25T19:37:53;33.47;;;11.37;;
18503;SDS011;9381;54.244;10.074;2024-01-25T19:42:54;40.38;;;12.52;;
18503;SDS011;9381;54.244;10.074;2024-01-25T19:47:54;37.27;;;11.83;;
18503;SDS011;9381;54.244;10.074;2024-01-25T19:52:55;39.63;;;12.50;;
18503;SDS011;9381;54.244;10.074;2024-01-25T19:57:56;36.00;;;13.07;;
18503;SDS011;9381;54.244;10.074;2024-01-25T20:02:57;44.90;;;13.03;;
18503;SDS011;9381;54.244;10.074;2024-01-25T20:07:58;36.67;;;12.73;;
18503;SDS011;9381;54.244;10.074;2024-01-25T20:12:58;45.97;;;13.47;;
18503;SDS011;9381;54.244;10.074;2024-01-25T20:17:59;37.27;;;10.83;;
18503;SDS011;9381;54.244;10.074;2024-01-25T20:22:59;48.40;;;13.57;;
18503;SDS011;9381;54.244;10.074;2024-01-25T20:27:59;45.63;;;11.45;;
18503;SDS011;9381;54.244;10.074;2024-01-25T20:33:00;39.13;;;12.00;;
18503;SDS011;9381;54.244;10.074;2024-01-25T20:38:00;37.60;;;11.17;;
18503;SDS011;9381;54.244;10.074;2024-01-25T20:43:00;50.70;;;11.47;;
18503;SDS011;9381;54.244;10.074;2024-01-25T20:48:01;46.40;;;11.10;;
18503;SDS011;9381;54.244;10.074;2024-01-25T20:53:02;34.93;;;10.70;;
18503;SDS011;9381;54.244;10.074;2024-01-25T20:58:02;35.07;;;8.50;;
18503;SDS011;9381;54.244;10.074;2024-01-25T21:03:03;27.47;;;8.07;;
18503;SDS011;9381;54.244;10.074;2024-01-25T21:08:04;32.00;;;8.57;;
18503;SDS011;9381;54.244;10.074;2024-01-25T21:13:05;38.73;;;10.00;;
18503;SDS011;9381;54.244;10.074;2024-01-25T21:18:05;39.20;;;11.57;;
18503;SDS011;9381;54.244;10.074;2024-01-25T21:23:06;29.20;;;8.77;;
18503;SDS011;9381;54.244;10.074;2024-01-25T21:28:07;45.27;;;11.93;;
18503;SDS011;9381;54.244;10.074;2024-01-25T21:33:07;50.03;;;12.10;;
18503;SDS011;9381;54.244;10.074;2024-01-25T21:38:07;36.53;;;14.90;;
18503;SDS011;9381;54.244;10.074;2024-01-25T21:43:08;54.93;;;11.73;;
18503;SDS011;9381;54.244;10.074;2024-01-25T21:48:08;46.17;;;11.27;;
18503;SDS011;9381;54.244;10.074;2024-01-25T21:53:09;35.30;;;10.83;;
18503;SDS011;9381;54.244;10.074;2024-01-25T21:58:10;41.72;;;11.35;;
18503;SDS011;9381;54.244;10.074;2024-01-25T22:03:10;43.53;;;11.87;;
18503;SDS011;9381;54.244;10.074;2024-01-25T22:08:10;44.37;;;11.57;;
18503;SDS011;9381;54.244;10.074;2024-01-25T22:13:11;45.53;;;11.67;;
18503;SDS011;9381;54.244;10.074;2024-01-25T22:18:11;48.37;;;11.87;;
18503;SDS011;9381;54.244;10.074;2024-01-25T22:23:11;43.37;;;12.70;;
18503;SDS011;9381;54.244;10.074;2024-01-25T22:28:12;47.67;;;13.27;;
18503;SDS011;9381;54.244;10.074;2024-01-25T22:33:14;38.70;;;11.97;;
18503;SDS011;9381;54.244;10.074;2024-01-25T22:38:14;54.07;;;13.20;;
18503;SDS011;9381;54.244;10.074;2024-01-25T22:43:14;37.33;;;10.40;;
18503;SDS011;9381;54.244;10.074;2024-01-25T22:48:15;38.03;;;10.53;;
18503;SDS011;9381;54.244;10.074;2024-01-25T22:53:15;43.63;;;10.97;;
18503;SDS011;9381;54.244;10.074;2024-01-25T22:58:16;40.43;;;10.47;;
18503;SDS011;9381;54.244;10.074;2024-01-25T23:03:16;43.63;;;10.48;;
18503;SDS011;9381;54.244;10.074;2024-01-25T23:08:17;42.73;;;10.40;;
18503;SDS011;9381;54.244;10.074;2024-01-25T23:13:18;41.20;;;10.77;;
18503;SDS011;9381;54.244;10.074;2024-01-25T23:18:19;42.77;;;10.73;;
18503;SDS011;9381;54.244;10.074;2024-01-25T23:23:19;44.30;;;11.10;;
18503;SDS011;9381;54.244;10.074;2024-01-25T23:28:19;43.00;;;11.13;;
18503;SDS011;9381;54.244;10.074;2024-01-25T23:33:20;42.63;;;11.80;;
18503;SDS011;9381;54.244;10.074;2024-01-25T23:38:22;38.17;;;10.67;;
18503;SDS011;9381;54.244;10.074;2024-01-25T23:43:22;37.40;;;11.13;;
18503;SDS011;9381;54.244;10.074;2024-01-25T23:48:23;40.97;;;11.27;;
18503;SDS011;9381;54.244;10.074;2024-01-25T23:53:23;39.30;;;11.40;;
18503;SDS011;9381;54.244;10.074;2024-01-25T23:58:24;34.97;;;11.67;;
